• Join FlightAware (Why Join?)
  • Login
  • US Flag 
07:27PM EDT


 

Airport Tracker/Info


-or-


 

Live Flight TrackerFlight Track Log ✈ N5293J ✈ 20-Feb-2014 ✈ KMWC - KMKG

Flight Track Log - Related Links

Times and Time Zones

All times are in EST time to prevent confusion due to time zone crossing. See the N5293J flight status page for this flight to view local times or setup timezone preferences in your user account.

Time Position Orientation Groundspeed Altitude Reporting Facility
EST Latitude Longitude Course Direction KTS MPH feet Rate Location/Type
05:33PM 43.1000 -88.0167 90° East 124 143 1,300  Level KMKE
05:34PM 43.1000 -88.0000 90° East 101 116 2,300 1,140 Climbing KMKE
05:35PM 43.1086 -87.9806 59° Northeast 123 142 2,700 900 Climbing Chicago Center
05:36PM 43.1294 -87.9431 53° Northeast 122 140 3,800 900 Climbing Chicago Center
05:37PM 43.1439 -87.9019 64° Northeast 122 140 4,600 720 Climbing Chicago Center
05:38PM 43.1544 -87.8536 73° East 129 148 5,300 660 Climbing Chicago Center
05:39PM 43.1603 -87.8000 81° East 139 160 6,000 720 Climbing Chicago Center
05:40PM 43.1642 -87.7314 86° East 149 171 6,900 420 Climbing Chicago Center
05:41PM 43.1592 -87.6689 96° East 161 185 6,900  Level Chicago Center
05:42PM 43.1583 -87.5994 91° East 177 204 6,900  Level Chicago Center
05:43PM 43.1606 -87.5267 88° East 187 215 6,900  Level Chicago Center
05:44PM 43.1617 -87.4544 89° East 190 219 6,900  Level Chicago Center
05:45PM 43.1633 -87.3817 88° East 192 221 6,900  Level Chicago Center
05:46PM 43.1633 -87.3039 90° East 190 219 6,900  Level Chicago Center
05:47PM 43.1656 -87.2317 88° East 190 219 6,900 -60 Level Chicago Center
05:48PM 43.1669 -87.1592 88° East 191 220 6,800  Descending Chicago Center
05:49PM 43.1564 -87.0925 102° East 181 208 6,900  Climbing Chicago Center
05:50PM 43.1361 -87.0181 110° East 175 201 6,900  Level Chicago Center
05:51PM 43.1192 -86.9558 110° East 175 201 6,900 -180 Level Chicago Center
05:52PM 43.1036 -86.8903 108° East 179 206 6,600 -540 Descending Chicago Center
05:53PM 43.0858 -86.8194 109° East 192 221 5,800 -780 Descending Chicago Center
05:54PM 43.0703 -86.7506 107° East 192 221 5,100 -780 Descending Chicago Center
05:55PM 43.0528 -86.6875 111° Southeast 182 209 4,200 -1,020 Descending Chicago Center
05:56PM 43.0342 -86.6147 109° East 175 201 3,100 -900 Descending Chicago Center
05:57PM 43.0400 -86.5533 83° East 172 198 2,400 -360 Descending Chicago Center
05:58PM 43.0531 -86.4989 72° East 162 186 2,400  Level Chicago Center
05:59PM 43.0644 -86.4469 73° East 151 174 2,400 -60 Level Chicago Center
06:00PM 43.0889 -86.4044 52° Northeast 145 167 2,300 -60 Descending Chicago Center
06:01PM 43.1081 -86.3647 57° Northeast 135 155 2,300 -300 Level Chicago Center
06:02PM 43.1244 -86.3264 60° Northeast 125 144 1,800 -600 Descending Chicago Center
06:03PM 43.1436 -86.2878 56° Northeast 112 129 1,100 -540 Descending Chicago Center
06:05PM 43.1589 -86.2578 55° Northeast 101 116 800 -300 Descending Chicago Center
06:06PM 43.1667 -86.2333 63° Northeast  Level FlightAware Approximate
06:13PM 43.1677 -86.2354 63° Northeast  Level Estimated